createdAt,value
2019-05-06T00:01:54.004Z,6.10
2019-05-06T00:04:24.507Z,5.93
2019-05-06T00:06:54.762Z,6.30
2019-05-06T00:09:24.015Z,5.80
2019-05-06T00:11:54.412Z,6.17
2019-05-06T00:14:23.568Z,5.80
2019-05-06T00:16:54.572Z,5.83
2019-05-06T00:19:24.500Z,5.97
2019-05-06T00:21:54.098Z,5.67
2019-05-06T00:24:24.789Z,5.37
2019-05-06T00:26:57.826Z,5.70
2019-05-06T00:29:27.836Z,6.07
2019-05-06T00:31:56.259Z,5.93
2019-05-06T00:34:24.784Z,6.03
2019-05-06T00:36:54.511Z,5.70
2019-05-06T00:39:36.554Z,6.70
2019-05-06T00:42:24.587Z,6.50
2019-05-06T00:44:53.711Z,5.67
2019-05-06T00:47:24.093Z,6.10
2019-05-06T00:49:54.440Z,6.33
2019-05-06T00:52:23.937Z,6.30
2019-05-06T00:54:54.651Z,6.43
2019-05-06T00:57:25.036Z,6.50
2019-05-06T00:59:53.926Z,6.80
2019-05-06T01:02:23.471Z,6.97
2019-05-06T01:04:54.002Z,7.00
2019-05-06T01:07:23.605Z,6.90
2019-05-06T01:09:54.023Z,6.43
2019-05-06T01:12:24.005Z,6.17
2019-05-06T01:14:54.695Z,6.77
2019-05-06T01:17:24.369Z,6.33
2019-05-06T01:19:54.084Z,6.30
2019-05-06T01:22:24.674Z,6.30
2019-05-06T01:24:53.184Z,5.73
2019-05-06T01:27:21.628Z,7.10
2019-05-06T01:29:50.085Z,6.10
2019-05-06T01:32:18.516Z,6.80
2019-05-06T01:34:46.961Z,7.03
2019-05-06T01:37:16.755Z,6.10
2019-05-06T01:39:49.279Z,6.53
2019-05-06T01:42:27.780Z,6.80
2019-05-06T01:44:56.231Z,6.73
2019-05-06T01:47:24.672Z,6.07
2019-05-06T01:49:53.736Z,7.13
2019-05-06T01:52:24.041Z,7.27
2019-05-06T01:54:54.221Z,7.33
2019-05-06T01:57:24.456Z,6.90
2019-05-06T01:59:53.903Z,7.40
2019-05-06T02:02:23.868Z,7.30
2019-05-06T02:04:54.009Z,7.73
2019-05-06T02:07:24.096Z,7.20
2019-05-06T02:09:54.269Z,7.70
2019-05-06T02:12:24.607Z,7.30
2019-05-06T02:14:54.285Z,7.27
2019-05-06T02:17:23.896Z,7.80
2019-05-06T02:19:54.459Z,6.73
2019-05-06T02:22:24.309Z,8.20
2019-05-06T02:24:54.387Z,7.67
2019-05-06T02:27:24.725Z,8.30
2019-05-06T02:29:57.408Z,7.10
2019-05-06T02:32:31.311Z,7.43
2019-05-06T02:35:08.228Z,7.10
2019-05-06T02:37:46.742Z,7.47
2019-05-06T02:40:26.752Z,7.03
2019-05-06T02:42:55.473Z,7.30
2019-05-06T02:45:24.409Z,7.37
2019-05-06T02:48:00.695Z,7.73
2019-05-06T02:50:45.324Z,7.40
2019-05-06T02:53:15.584Z,7.27
2019-05-06T02:55:44.011Z,6.97
2019-05-06T02:58:14.888Z,6.67
2019-05-06T03:00:43.698Z,6.47
2019-05-06T03:03:14.089Z,7.13
2019-05-06T03:05:43.866Z,7.53
2019-05-06T03:08:13.674Z,6.50
2019-05-06T03:10:44.281Z,6.70
2019-05-06T03:13:14.210Z,6.87
2019-05-06T03:15:43.321Z,7.03
2019-05-06T03:18:14.676Z,6.57
2019-05-06T03:20:46.931Z,7.53
2019-05-06T03:23:16.988Z,7.27
2019-05-06T03:25:45.880Z,6.83
2019-05-06T03:28:14.314Z,7.23
2019-05-06T03:30:45.799Z,7.30
2019-05-06T03:33:37.037Z,7.23
2019-05-06T03:35:58.056Z,7.27
2019-05-06T03:38:13.825Z,7.40
2019-05-06T03:40:45.780Z,6.70
2019-05-06T03:43:13.167Z,7.93
2019-05-06T03:45:53.709Z,8.17
2019-05-06T03:48:26.901Z,7.37
2019-05-06T03:50:56.063Z,8.00
2019-05-06T03:53:24.620Z,7.53
2019-05-06T03:55:55.033Z,8.17
2019-05-06T03:58:26.889Z,7.73
2019-05-06T04:00:57.924Z,8.30
2019-05-06T04:03:42.488Z,8.37
2019-05-06T04:05:56.484Z,7.17
2019-05-06T04:08:24.973Z,8.03
2019-05-06T04:10:54.323Z,8.20
2019-05-06T04:13:23.273Z,7.77
2019-05-06T04:16:03.711Z,8.70
2019-05-06T04:18:34.435Z,7.40
2019-05-06T04:21:09.086Z,8.00
2019-05-06T04:23:43.693Z,8.83
2019-05-06T04:26:14.066Z,8.20
2019-05-06T04:28:43.517Z,10.47
2019-05-06T04:31:13.262Z,8.77
2019-05-06T04:33:46.163Z,9.00
2019-05-06T04:36:13.182Z,8.37
2019-05-06T04:38:43.416Z,8.20
2019-05-06T04:41:13.660Z,8.00
2019-05-06T04:43:43.919Z,8.60
2019-05-06T04:46:16.512Z,8.40
2019-05-06T04:48:43.417Z,7.93
2019-05-06T04:51:13.602Z,9.00
2019-05-06T04:53:43.999Z,8.60
2019-05-06T04:56:14.318Z,8.00
2019-05-06T04:58:43.135Z,8.17
2019-05-06T05:01:15.454Z,8.00
2019-05-06T05:03:42.743Z,7.53
2019-05-06T05:06:13.574Z,7.97
2019-05-06T05:08:42.698Z,7.67
2019-05-06T05:11:29.232Z,7.40
2019-05-06T05:14:05.242Z,7.57
2019-05-06T05:16:35.468Z,8.10
2019-05-06T05:19:05.516Z,7.23
2019-05-06T05:21:34.722Z,8.90
2019-05-06T05:24:05.947Z,7.77
2019-05-06T05:26:34.386Z,7.70
2019-05-06T05:29:03.068Z,7.70
2019-05-06T05:31:33.178Z,7.63
2019-05-06T05:34:02.158Z,6.97
2019-05-06T05:36:32.868Z,6.30
2019-05-06T05:39:03.330Z,7.03
2019-05-06T05:41:33.141Z,8.10
2019-05-06T05:44:08.902Z,7.23
2019-05-06T05:46:37.892Z,7.47
2019-05-06T05:49:08.056Z,6.70
2019-05-06T05:51:36.669Z,6.33
2019-05-06T05:54:07.019Z,7.27
2019-05-06T05:56:35.619Z,6.47
2019-05-06T05:59:04.106Z,5.60
2019-05-06T06:01:32.858Z,6.63
2019-05-06T06:04:03.042Z,6.60
2019-05-06T06:06:33.215Z,6.23
2019-05-06T06:09:03.137Z,7.20
2019-05-06T06:11:35.960Z,6.93
2019-05-06T06:14:06.151Z,6.57
2019-05-06T06:16:39.551Z,5.70
2019-05-06T06:19:22.115Z,6.13
2019-05-06T06:21:52.460Z,6.03
2019-05-06T06:24:25.657Z,6.27
2019-05-06T06:26:54.278Z,6.30
2019-05-06T06:29:22.895Z,6.47
2019-05-06T06:31:54.134Z,5.87
2019-05-06T06:34:30.306Z,6.00
2019-05-06T06:37:16.723Z,5.70
2019-05-06T06:39:46.887Z,5.57
2019-05-06T06:42:15.408Z,6.20
2019-05-06T06:44:43.912Z,5.97
2019-05-06T06:47:13.091Z,6.40
2019-05-06T06:49:42.440Z,6.27
2019-05-06T06:52:14.186Z,6.77
2019-05-06T06:54:43.597Z,6.00
2019-05-06T06:57:15.699Z,8.50
2019-05-06T06:59:48.047Z,6.87
2019-05-06T07:02:34.630Z,6.20
2019-05-06T07:05:27.621Z,6.23
2019-05-06T07:07:53.135Z,6.07
2019-05-06T07:10:39.172Z,6.50
2019-05-06T07:13:07.775Z,6.60
2019-05-06T07:15:37.155Z,5.93
2019-05-06T07:18:05.768Z,6.00
2019-05-06T07:20:38.548Z,5.63
2019-05-06T07:23:26.052Z,5.17
2019-05-06T07:25:54.998Z,5.03
2019-05-06T07:28:24.346Z,5.30
2019-05-06T07:30:53.407Z,4.97
2019-05-06T07:33:22.899Z,4.13
2019-05-06T07:35:52.925Z,4.97
2019-05-06T07:38:23.143Z,4.50
2019-05-06T07:40:53.543Z,4.00
2019-05-06T07:43:29.222Z,3.80
2019-05-06T07:46:15.579Z,3.70
2019-05-06T07:48:44.251Z,4.30
2019-05-06T07:51:12.668Z,4.30
2019-05-06T07:53:42.680Z,4.67
2019-05-06T07:56:12.667Z,4.80
2019-05-06T07:58:43.358Z,3.97
2019-05-06T08:01:13.593Z,4.50
2019-05-06T08:03:42.808Z,4.17
2019-05-06T08:06:13.297Z,4.40
2019-05-06T08:08:43.397Z,3.73
2019-05-06T08:11:12.423Z,4.03
2019-05-06T08:13:43.253Z,3.47
2019-05-06T08:16:13.076Z,4.47
2019-05-06T08:18:42.597Z,4.70
2019-05-06T08:21:15.791Z,4.40
2019-05-06T08:23:45.863Z,4.97
2019-05-06T08:26:17.718Z,4.30
2019-05-06T08:28:44.740Z,4.33
2019-05-06T08:31:13.243Z,4.10
2019-05-06T08:33:43.187Z,4.00
2019-05-06T08:36:14.983Z,4.47
2019-05-06T08:38:59.212Z,4.57
2019-05-06T08:41:28.083Z,3.23
2019-05-06T08:43:56.743Z,5.73
2019-05-06T08:46:25.262Z,4.00
2019-05-06T08:48:53.771Z,3.97
2019-05-06T08:51:33.291Z,3.60
2019-05-06T08:54:03.591Z,4.27
2019-05-06T08:56:32.137Z,3.37
2019-05-06T08:59:03.008Z,3.13
2019-05-06T09:01:32.642Z,3.57
2019-05-06T09:04:09.535Z,3.47
2019-05-06T09:06:34.387Z,3.50
2019-05-06T09:09:02.436Z,3.50
2019-05-06T09:11:32.194Z,3.20
2019-05-06T09:14:03.163Z,3.80
2019-05-06T09:16:32.933Z,3.10
2019-05-06T09:19:04.252Z,3.10
2019-05-06T09:21:33.336Z,3.40
2019-05-06T09:24:02.310Z,3.97
2019-05-06T09:26:32.517Z,3.73
2019-05-06T09:29:02.555Z,3.30
2019-05-06T09:31:42.723Z,3.37
2019-05-06T09:34:27.909Z,4.17
2019-05-06T09:37:13.656Z,3.30
2019-05-06T09:39:43.753Z,3.47
2019-05-06T09:42:13.117Z,3.43
2019-05-06T09:44:42.914Z,3.83
2019-05-06T09:47:13.167Z,3.90
2019-05-06T09:49:43.436Z,4.17
2019-05-06T09:52:12.982Z,5.47
2019-05-06T09:54:54.958Z,4.43
2019-05-06T09:57:27.494Z,4.87
2019-05-06T09:59:55.917Z,4.83
2019-05-06T10:02:24.487Z,4.10
2019-05-06T10:04:52.905Z,3.07
2019-05-06T10:07:22.554Z,3.43
2019-05-06T10:09:52.710Z,3.10
2019-05-06T10:12:21.278Z,3.33
2019-05-06T10:14:50.136Z,2.83
2019-05-06T10:17:18.543Z,2.90
2019-05-06T10:19:47.068Z,2.67
2019-05-06T10:22:15.492Z,2.87
2019-05-06T10:24:43.907Z,2.30
2019-05-06T10:27:12.441Z,2.67
2019-05-06T10:29:45.359Z,2.43
2019-05-06T10:32:22.423Z,2.60
2019-05-06T10:34:52.625Z,3.10
2019-05-06T10:37:45.309Z,3.07
2019-05-06T10:40:22.844Z,2.30
2019-05-06T10:43:03.262Z,2.20
2019-05-06T10:45:32.609Z,2.50
2019-05-06T10:48:02.328Z,2.97
2019-05-06T10:50:32.720Z,2.77
2019-05-06T10:53:23.069Z,2.77
2019-05-06T10:55:53.600Z,2.50
2019-05-06T10:58:22.713Z,2.33
2019-05-06T11:00:53.192Z,2.70
2019-05-06T11:03:23.377Z,2.73
2019-05-06T11:05:53.467Z,2.20
2019-05-06T11:08:22.302Z,2.20
2019-05-06T11:10:53.219Z,2.10
2019-05-06T11:13:21.020Z,2.40
2019-05-06T11:15:49.456Z,2.40
2019-05-06T11:18:17.971Z,2.67
2019-05-06T11:20:46.420Z,2.73
2019-05-06T11:23:14.907Z,2.43
2019-05-06T11:25:43.634Z,2.50
2019-05-06T11:28:30.034Z,2.63
2019-05-06T11:31:02.261Z,2.80
2019-05-06T11:33:32.916Z,2.37
2019-05-06T11:36:03.079Z,2.33
2019-05-06T11:38:32.272Z,2.80
2019-05-06T11:41:00.735Z,2.50
2019-05-06T11:43:29.251Z,2.80
2019-05-06T11:45:57.723Z,2.47
2019-05-06T11:48:26.183Z,3.23
2019-05-06T11:50:56.269Z,2.80
2019-05-06T11:53:24.731Z,3.13
2019-05-06T11:55:54.919Z,2.70
2019-05-06T11:58:42.873Z,3.07
2019-05-06T12:01:13.559Z,3.50
2019-05-06T12:03:42.709Z,2.80
2019-05-06T12:06:13.082Z,2.40
2019-05-06T12:08:43.183Z,2.53
2019-05-06T12:11:12.635Z,2.43
2019-05-06T12:13:42.535Z,2.57
2019-05-06T12:16:14.046Z,2.10
2019-05-06T12:18:42.210Z,2.87
2019-05-06T12:21:16.105Z,2.27
2019-05-06T12:23:44.794Z,2.23
2019-05-06T12:26:13.255Z,2.43
2019-05-06T12:28:43.460Z,2.70
2019-05-06T12:31:12.921Z,2.60
2019-05-06T12:33:43.000Z,2.33
2019-05-06T12:36:15.289Z,2.37
2019-05-06T12:39:06.326Z,2.07
2019-05-06T12:41:33.504Z,2.70
2019-05-06T12:44:03.134Z,2.13
2019-05-06T12:46:36.383Z,2.57
2019-05-06T12:49:05.560Z,2.47
2019-05-06T12:51:33.983Z,2.30
2019-05-06T12:54:03.610Z,2.33
2019-05-06T12:56:32.178Z,2.90
2019-05-06T12:59:02.181Z,2.80
2019-05-06T13:01:33.432Z,2.20
2019-05-06T13:04:04.183Z,2.83
2019-05-06T13:06:33.223Z,2.50
2019-05-06T13:09:04.863Z,2.67
2019-05-06T13:11:31.714Z,2.77
2019-05-06T13:14:00.969Z,2.10
2019-05-06T13:16:32.910Z,2.80
2019-05-06T13:19:00.590Z,2.37
2019-05-06T13:21:29.104Z,2.53
2019-05-06T13:24:01.713Z,2.00
2019-05-06T13:26:29.319Z,2.03
2019-05-06T13:28:59.376Z,4.33
2019-05-06T13:31:27.819Z,2.50
2019-05-06T13:33:58.057Z,2.20
2019-05-06T13:36:26.612Z,2.50
2019-05-06T13:39:09.560Z,2.40
2019-05-06T13:41:25.182Z,2.50
2019-05-06T13:43:55.269Z,2.60
2019-05-06T13:46:28.339Z,2.97
2019-05-06T13:49:02.818Z,2.80
2019-05-06T13:51:35.551Z,2.90
2019-05-06T13:54:04.153Z,2.53
2019-05-06T13:56:33.310Z,3.50
2019-05-06T13:59:04.769Z,2.37
2019-05-06T14:01:36.363Z,2.80
2019-05-06T14:04:05.024Z,2.30
2019-05-06T14:06:33.455Z,2.40
2019-05-06T14:09:02.596Z,2.60
2019-05-06T14:11:32.405Z,3.30
2019-05-06T14:14:02.896Z,2.30
2019-05-06T14:16:33.459Z,2.60
2019-05-06T14:19:04.021Z,2.43
2019-05-06T14:21:32.398Z,2.40
2019-05-06T14:24:02.543Z,2.50
2019-05-06T14:26:47.510Z,2.73
2019-05-06T14:29:35.329Z,1.80
2019-05-06T14:32:03.827Z,2.17
2019-05-06T14:34:32.598Z,2.50
2019-05-06T14:37:01.150Z,1.80
2019-05-06T14:39:49.112Z,2.40
2019-05-06T14:42:02.240Z,2.30
2019-05-06T14:44:32.714Z,2.17
2019-05-06T14:47:02.934Z,1.90
2019-05-06T14:49:32.586Z,2.83
2019-05-06T14:52:02.674Z,2.10
2019-05-06T14:54:33.102Z,2.00
2019-05-06T14:57:05.963Z,2.60
2019-05-06T14:59:34.371Z,2.63
2019-05-06T15:02:02.803Z,2.27
2019-05-06T15:04:32.501Z,2.00
2019-05-06T15:07:02.137Z,2.80
2019-05-06T15:09:32.868Z,2.80
2019-05-06T15:12:02.316Z,2.40
2019-05-06T15:14:33.140Z,2.17
2019-05-06T15:17:02.200Z,2.57
2019-05-06T15:19:30.860Z,2.40
2019-05-06T15:21:59.370Z,2.30
2019-05-06T15:24:27.794Z,2.00
2019-05-06T15:26:56.231Z,2.57
2019-05-06T15:29:24.677Z,2.27
2019-05-06T15:31:54.755Z,2.27
2019-05-06T15:34:24.799Z,3.17
2019-05-06T15:36:57.382Z,2.30
2019-05-06T15:39:25.847Z,2.57
2019-05-06T15:41:54.283Z,2.33
2019-05-06T15:44:23.399Z,2.50
2019-05-06T15:46:52.739Z,2.70
2019-05-06T15:49:22.303Z,2.93
2019-05-06T15:51:52.250Z,2.90
2019-05-06T15:54:22.664Z,2.50
2019-05-06T15:56:53.187Z,2.60
2019-05-06T15:59:22.954Z,2.80
2019-05-06T16:01:53.165Z,2.73
2019-05-06T16:04:22.907Z,2.27
2019-05-06T16:06:52.871Z,2.70
2019-05-06T16:09:23.399Z,2.97
2019-05-06T16:11:53.394Z,2.90
2019-05-06T16:14:23.028Z,3.23
2019-05-06T16:16:52.771Z,2.70
2019-05-06T16:19:22.871Z,2.70
2019-05-06T16:21:52.290Z,2.60
2019-05-06T16:24:34.557Z,2.90
2019-05-06T16:27:03.089Z,3.50
2019-05-06T16:29:37.093Z,3.00
2019-05-06T16:32:07.544Z,3.17
2019-05-06T16:34:36.103Z,3.20
2019-05-06T16:37:05.079Z,2.70
2019-05-06T16:39:33.580Z,2.90
2019-05-06T16:42:03.667Z,3.00
2019-05-06T16:44:32.330Z,2.80
2019-05-06T16:47:02.894Z,2.73
2019-05-06T16:49:32.967Z,2.67
2019-05-06T16:52:02.549Z,2.47
2019-05-06T16:54:34.404Z,3.33
2019-05-06T16:57:13.600Z,2.83
2019-05-06T16:59:42.494Z,3.00
2019-05-06T17:02:14.016Z,2.77
2019-05-06T17:04:44.195Z,2.67
2019-05-06T17:07:12.627Z,3.13
2019-05-06T17:09:42.817Z,2.47
2019-05-06T17:12:12.784Z,2.50
2019-05-06T17:14:42.850Z,2.30
2019-05-06T17:17:11.372Z,2.30
2019-05-06T17:19:42.068Z,2.90
2019-05-06T17:22:12.210Z,2.47
2019-05-06T17:24:42.034Z,2.80
2019-05-06T17:27:12.097Z,2.50
2019-05-06T17:29:51.007Z,2.77
2019-05-06T17:32:33.472Z,2.57
2019-05-06T17:35:02.779Z,2.60
2019-05-06T17:37:45.018Z,2.37
2019-05-06T17:40:15.536Z,2.57
2019-05-06T17:42:43.966Z,2.77
2019-05-06T17:45:32.233Z,2.77
2019-05-06T17:48:02.912Z,2.20
2019-05-06T17:50:32.634Z,2.53
2019-05-06T17:53:01.576Z,2.70
2019-05-06T17:55:32.271Z,2.20
2019-05-06T17:58:02.342Z,2.67
2019-05-06T18:00:32.285Z,2.70
2019-05-06T18:03:02.450Z,1.87
2019-05-06T18:05:32.514Z,2.60
2019-05-06T18:08:02.396Z,2.00
2019-05-06T18:10:33.313Z,2.93
2019-05-06T18:13:02.936Z,2.50
2019-05-06T18:15:32.190Z,2.37
2019-05-06T18:18:02.185Z,2.40
2019-05-06T18:20:33.037Z,2.67
2019-05-06T18:23:02.113Z,2.43
2019-05-06T18:25:32.502Z,2.20
2019-05-06T18:28:00.911Z,2.13
2019-05-06T18:30:33.494Z,2.30
2019-05-06T18:32:59.479Z,2.33
2019-05-06T18:35:27.901Z,2.93
2019-05-06T18:37:56.334Z,2.77
2019-05-06T18:40:24.760Z,2.47
2019-05-06T18:42:53.279Z,3.10
2019-05-06T18:45:22.129Z,2.50
2019-05-06T18:47:53.026Z,2.93
2019-05-06T18:50:22.052Z,2.63
2019-05-06T18:52:52.852Z,2.43
2019-05-06T18:55:22.374Z,2.90
2019-05-06T18:57:52.801Z,2.30
2019-05-06T19:00:22.413Z,2.63
2019-05-06T19:02:52.284Z,2.10
2019-05-06T19:05:28.536Z,3.00
2019-05-06T19:07:57.323Z,2.30
2019-05-06T19:10:29.832Z,2.50
2019-05-06T19:12:58.243Z,2.47
2019-05-06T19:15:27.291Z,3.20
2019-05-06T19:17:55.730Z,2.43
2019-05-06T19:20:24.487Z,2.20
2019-05-06T19:22:53.646Z,2.50
2019-05-06T19:25:22.692Z,2.90
2019-05-06T19:27:53.108Z,2.27
2019-05-06T19:30:22.488Z,2.20
2019-05-06T19:32:52.599Z,2.40
2019-05-06T19:35:21.224Z,2.57
2019-05-06T19:37:49.657Z,2.73
2019-05-06T19:40:18.091Z,2.10
2019-05-06T19:42:50.003Z,2.90
2019-05-06T19:45:16.743Z,3.07
2019-05-06T19:47:45.171Z,2.30
2019-05-06T19:50:13.751Z,2.50
2019-05-06T19:52:42.311Z,2.63
2019-05-06T19:55:12.391Z,2.80
2019-05-06T19:57:42.978Z,3.10
2019-05-06T20:00:11.460Z,2.67
2019-05-06T20:02:39.871Z,2.47
2019-05-06T20:05:12.681Z,2.50
2019-05-06T20:07:52.154Z,2.53
2019-05-06T20:10:32.726Z,2.60
2019-05-06T20:13:05.200Z,2.53
2019-05-06T20:15:34.434Z,2.50
2019-05-06T20:18:03.787Z,2.80
2019-05-06T20:20:34.828Z,2.97
2019-05-06T20:23:02.803Z,3.03
2019-05-06T20:25:31.335Z,2.87
2019-05-06T20:28:02.413Z,2.70
2019-05-06T20:30:32.692Z,2.23
2019-05-06T20:33:01.185Z,2.83
2019-05-06T20:35:31.992Z,3.03
2019-05-06T20:37:59.823Z,3.00
2019-05-06T20:40:28.539Z,2.70
2019-05-06T20:42:56.943Z,2.97
2019-05-06T20:45:25.451Z,3.03
2019-05-06T20:47:53.885Z,4.20
2019-05-06T20:50:22.646Z,2.93
2019-05-06T20:52:52.050Z,2.70
2019-05-06T20:55:22.698Z,3.27
2019-05-06T20:57:52.742Z,2.90
2019-05-06T21:00:22.392Z,2.60
2019-05-06T21:02:53.287Z,2.77
2019-05-06T21:05:22.808Z,1.73
2019-05-06T21:07:52.563Z,2.30
2019-05-06T21:10:22.147Z,1.40
2019-05-06T21:12:53.023Z,1.80
2019-05-06T21:15:22.964Z,1.90
2019-05-06T21:17:51.263Z,1.87
2019-05-06T21:20:19.946Z,2.10
2019-05-06T21:22:49.196Z,1.73
2019-05-06T21:25:17.971Z,1.93
2019-05-06T21:27:46.459Z,1.83
2019-05-06T21:30:15.204Z,2.00
2019-05-06T21:32:43.707Z,2.63
2019-05-06T21:35:12.646Z,2.17
2019-05-06T21:37:42.243Z,2.07
2019-05-06T21:40:12.251Z,2.20
2019-05-06T21:42:42.900Z,2.57
2019-05-06T21:45:12.537Z,2.87
2019-05-06T21:47:44.306Z,2.83
2019-05-06T21:50:12.116Z,2.70
2019-05-06T21:52:42.824Z,2.70
2019-05-06T21:55:13.156Z,2.40
2019-05-06T21:57:42.401Z,2.80
2019-05-06T22:00:16.731Z,2.60
2019-05-06T22:02:43.407Z,2.97
2019-05-06T22:05:13.335Z,3.00
2019-05-06T22:07:43.508Z,3.27
2019-05-06T22:10:12.906Z,2.70
2019-05-06T22:12:43.385Z,2.90
2019-05-06T22:15:11.926Z,2.77
2019-05-06T22:17:42.723Z,3.67
2019-05-06T22:20:10.819Z,3.03
2019-05-06T22:22:43.566Z,3.43
2019-05-06T22:25:12.635Z,3.70
2019-05-06T22:27:42.445Z,3.33
2019-05-06T22:30:11.478Z,3.20
2019-05-06T22:32:45.859Z,3.00
2019-05-06T22:35:16.471Z,3.00
2019-05-06T22:37:45.219Z,3.00
2019-05-06T22:40:13.897Z,3.67
2019-05-06T22:42:43.060Z,3.33
2019-05-06T22:45:12.987Z,3.70
2019-05-06T22:47:42.225Z,3.60
2019-05-06T22:50:13.055Z,3.60
2019-05-06T22:52:42.082Z,3.93
2019-05-06T22:55:12.878Z,3.23
2019-05-06T22:57:42.263Z,3.07
2019-05-06T23:00:15.393Z,2.90
2019-05-06T23:02:45.454Z,3.33
2019-05-06T23:05:13.867Z,3.93
2019-05-06T23:07:42.426Z,3.83
2019-05-06T23:10:11.319Z,3.70
2019-05-06T23:12:39.753Z,3.63
2019-05-06T23:15:08.406Z,3.50
2019-05-06T23:17:36.843Z,3.83
2019-05-06T23:20:08.523Z,3.60
2019-05-06T23:22:36.974Z,3.50
2019-05-06T23:25:06.296Z,3.50
2019-05-06T23:27:34.718Z,5.43
2019-05-06T23:30:04.700Z,3.77
2019-05-06T23:32:33.123Z,4.33
2019-05-06T23:35:03.260Z,3.53
2019-05-06T23:37:30.706Z,4.00
2019-05-06T23:40:36.344Z,4.27
2019-05-06T23:43:42.692Z,3.77
2019-05-06T23:46:46.926Z,4.20
2019-05-06T23:49:52.694Z,4.17
2019-05-06T23:52:57.231Z,3.87
2019-05-06T23:56:02.773Z,3.40
2019-05-06T23:58:32.213Z,3.87
